sensor_id;sensor_type;location;lat;lon;timestamp;temperature;humidity
23813;DHT22;12087;45.190;5.688;2023-05-13T00:00:51;13.60;99.90
23813;DHT22;12087;45.190;5.688;2023-05-13T00:06:14;13.60;99.90
23813;DHT22;12087;45.190;5.688;2023-05-13T00:11:37;13.60;99.90
23813;DHT22;12087;45.190;5.688;2023-05-13T00:16:59;13.60;99.90
23813;DHT22;12087;45.190;5.688;2023-05-13T00:22:25;13.60;99.90
23813;DHT22;12087;45.190;5.688;2023-05-13T00:27:48;13.60;99.90
23813;DHT22;12087;45.190;5.688;2023-05-13T00:33:10;13.50;99.90
23813;DHT22;12087;45.190;5.688;2023-05-13T00:38:34;13.50;99.90
23813;DHT22;12087;45.190;5.688;2023-05-13T00:43:56;13.50;99.90
23813;DHT22;12087;45.190;5.688;2023-05-13T00:49:18;13.50;99.90
23813;DHT22;12087;45.190;5.688;2023-05-13T00:54:42;13.50;99.90
23813;DHT22;12087;45.190;5.688;2023-05-13T01:00:05;13.50;99.90
23813;DHT22;12087;45.190;5.688;2023-05-13T01:05:40;13.40;99.90
23813;DHT22;12087;45.190;5.688;2023-05-13T01:11:11;13.40;99.90
23813;DHT22;12087;45.190;5.688;2023-05-13T01:16:39;13.30;99.90
23813;DHT22;12087;45.190;5.688;2023-05-13T01:22:04;13.30;99.90
23813;DHT22;12087;45.190;5.688;2023-05-13T01:27:27;13.30;99.90
23813;DHT22;12087;45.190;5.688;2023-05-13T01:32:50;13.30;99.90
23813;DHT22;12087;45.190;5.688;2023-05-13T01:38:14;13.30;99.90
23813;DHT22;12087;45.190;5.688;2023-05-13T01:43:36;13.30;99.90
23813;DHT22;12087;45.190;5.688;2023-05-13T01:48:58;13.30;99.90
23813;DHT22;12087;45.190;5.688;2023-05-13T01:54:22;13.30;99.90
23813;DHT22;12087;45.190;5.688;2023-05-13T01:59:45;13.20;99.90
23813;DHT22;12087;45.190;5.688;2023-05-13T02:05:08;13.10;99.90
23813;DHT22;12087;45.190;5.688;2023-05-13T02:10:31;13.10;99.90
23813;DHT22;12087;45.190;5.688;2023-05-13T02:15:54;13.10;99.90
23813;DHT22;12087;45.190;5.688;2023-05-13T02:21:16;13.10;99.90
23813;DHT22;12087;45.190;5.688;2023-05-13T02:26:39;13.10;99.90
23813;DHT22;12087;45.190;5.688;2023-05-13T02:32:02;13.20;99.90
23813;DHT22;12087;45.190;5.688;2023-05-13T02:37:25;13.20;99.90
23813;DHT22;12087;45.190;5.688;2023-05-13T02:42:49;13.20;99.90
23813;DHT22;12087;45.190;5.688;2023-05-13T02:48:11;13.10;99.90
23813;DHT22;12087;45.190;5.688;2023-05-13T02:53:33;13.10;99.90
23813;DHT22;12087;45.190;5.688;2023-05-13T02:58:57;13.10;99.90
23813;DHT22;12087;45.190;5.688;2023-05-13T03:04:19;13.00;99.90
23813;DHT22;12087;45.190;5.688;2023-05-13T03:09:41;13.00;99.90
23813;DHT22;12087;45.190;5.688;2023-05-13T03:15:06;13.00;99.90
23813;DHT22;12087;45.190;5.688;2023-05-13T03:20:29;13.00;99.90
23813;DHT22;12087;45.190;5.688;2023-05-13T03:25:52;13.00;99.90
23813;DHT22;12087;45.190;5.688;2023-05-13T03:31:15;12.90;99.90
23813;DHT22;12087;45.190;5.688;2023-05-13T03:36:37;12.90;99.90
23813;DHT22;12087;45.190;5.688;2023-05-13T03:42:00;12.90;99.90
23813;DHT22;12087;45.190;5.688;2023-05-13T03:47:24;12.90;99.90
23813;DHT22;12087;45.190;5.688;2023-05-13T03:52:46;12.80;99.90
23813;DHT22;12087;45.190;5.688;2023-05-13T03:58:11;12.80;99.90
23813;DHT22;12087;45.190;5.688;2023-05-13T04:03:36;12.80;99.90
23813;DHT22;12087;45.190;5.688;2023-05-13T04:08:58;12.80;99.90
23813;DHT22;12087;45.190;5.688;2023-05-13T04:14:20;12.80;99.90
23813;DHT22;12087;45.190;5.688;2023-05-13T04:19:44;12.70;99.90
23813;DHT22;12087;45.190;5.688;2023-05-13T04:25:07;12.70;99.90
23813;DHT22;12087;45.190;5.688;2023-05-13T04:30:29;12.70;99.90
23813;DHT22;12087;45.190;5.688;2023-05-13T04:35:53;12.70;99.90
23813;DHT22;12087;45.190;5.688;2023-05-13T04:41:15;12.70;99.90
23813;DHT22;12087;45.190;5.688;2023-05-13T04:46:37;12.70;99.90
23813;DHT22;12087;45.190;5.688;2023-05-13T04:52:02;12.70;99.90
23813;DHT22;12087;45.190;5.688;2023-05-13T04:57:24;12.60;99.90
23813;DHT22;12087;45.190;5.688;2023-05-13T05:02:46;12.60;99.90
23813;DHT22;12087;45.190;5.688;2023-05-13T05:08:10;12.70;99.90
23813;DHT22;12087;45.190;5.688;2023-05-13T05:13:32;12.70;99.90
23813;DHT22;12087;45.190;5.688;2023-05-13T05:18:54;12.70;99.90
23813;DHT22;12087;45.190;5.688;2023-05-13T05:24:18;12.70;99.90
23813;DHT22;12087;45.190;5.688;2023-05-13T05:29:41;12.70;99.90
23813;DHT22;12087;45.190;5.688;2023-05-13T05:35:04;12.70;99.90
23813;DHT22;12087;45.190;5.688;2023-05-13T05:40:27;12.70;99.90
23813;DHT22;12087;45.190;5.688;2023-05-13T05:45:50;12.70;99.90
23813;DHT22;12087;45.190;5.688;2023-05-13T05:51:12;12.70;99.90
23813;DHT22;12087;45.190;5.688;2023-05-13T05:56:35;12.80;99.90
23813;DHT22;12087;45.190;5.688;2023-05-13T06:01:58;12.80;99.90
23813;DHT22;12087;45.190;5.688;2023-05-13T06:07:20;12.80;99.90
23813;DHT22;12087;45.190;5.688;2023-05-13T06:12:43;12.70;99.90
23813;DHT22;12087;45.190;5.688;2023-05-13T06:18:05;12.80;99.90
23813;DHT22;12087;45.190;5.688;2023-05-13T06:23:28;12.80;99.90
23813;DHT22;12087;45.190;5.688;2023-05-13T06:28:51;12.90;99.90
23813;DHT22;12087;45.190;5.688;2023-05-13T06:34:13;12.90;99.90
23813;DHT22;12087;45.190;5.688;2023-05-13T06:39:36;12.90;99.90
23813;DHT22;12087;45.190;5.688;2023-05-13T06:45:00;13.00;99.90
23813;DHT22;12087;45.190;5.688;2023-05-13T06:50:22;13.00;99.90
23813;DHT22;12087;45.190;5.688;2023-05-13T06:55:45;13.00;99.90
23813;DHT22;12087;45.190;5.688;2023-05-13T07:01:08;13.00;99.90
23813;DHT22;12087;45.190;5.688;2023-05-13T07:06:30;13.00;99.90
23813;DHT22;12087;45.190;5.688;2023-05-13T07:11:53;12.90;99.90
23813;DHT22;12087;45.190;5.688;2023-05-13T07:17:17;12.90;99.90
23813;DHT22;12087;45.190;5.688;2023-05-13T07:22:39;13.00;99.90
23813;DHT22;12087;45.190;5.688;2023-05-13T07:28:01;13.00;99.90
23813;DHT22;12087;45.190;5.688;2023-05-13T07:33:25;13.00;99.90
23813;DHT22;12087;45.190;5.688;2023-05-13T07:38:47;13.10;99.90
23813;DHT22;12087;45.190;5.688;2023-05-13T07:44:09;13.20;99.90
23813;DHT22;12087;45.190;5.688;2023-05-13T07:49:34;13.30;99.90
23813;DHT22;12087;45.190;5.688;2023-05-13T07:54:56;13.40;99.90
23813;DHT22;12087;45.190;5.688;2023-05-13T08:00:19;13.50;99.90
23813;DHT22;12087;45.190;5.688;2023-05-13T08:05:42;13.60;99.90
23813;DHT22;12087;45.190;5.688;2023-05-13T08:11:05;13.80;99.90
23813;DHT22;12087;45.190;5.688;2023-05-13T08:16:27;13.90;99.90
23813;DHT22;12087;45.190;5.688;2023-05-13T08:21:51;14.00;99.90
23813;DHT22;12087;45.190;5.688;2023-05-13T08:27:13;14.10;99.90
23813;DHT22;12087;45.190;5.688;2023-05-13T08:32:36;14.10;99.90
23813;DHT22;12087;45.190;5.688;2023-05-13T08:38:00;14.20;99.90
23813;DHT22;12087;45.190;5.688;2023-05-13T08:43:23;14.30;99.90
23813;DHT22;12087;45.190;5.688;2023-05-13T08:48:48;14.30;99.90
23813;DHT22;12087;45.190;5.688;2023-05-13T08:54:12;14.40;99.90
23813;DHT22;12087;45.190;5.688;2023-05-13T08:59:36;14.60;99.90
23813;DHT22;12087;45.190;5.688;2023-05-13T09:05:03;14.50;99.90
23813;DHT22;12087;45.190;5.688;2023-05-13T09:10:27;14.90;99.90
23813;DHT22;12087;45.190;5.688;2023-05-13T09:15:50;15.40;99.90
23813;DHT22;12087;45.190;5.688;2023-05-13T09:21:22;15.60;99.90
23813;DHT22;12087;45.190;5.688;2023-05-13T09:26:47;15.80;99.90
23813;DHT22;12087;45.190;5.688;2023-05-13T09:32:09;15.90;99.90
23813;DHT22;12087;45.190;5.688;2023-05-13T09:37:31;16.00;99.90
23813;DHT22;12087;45.190;5.688;2023-05-13T09:42:57;16.10;99.90
23813;DHT22;12087;45.190;5.688;2023-05-13T09:48:20;16.40;99.90
23813;DHT22;12087;45.190;5.688;2023-05-13T09:53:46;16.70;99.90
23813;DHT22;12087;45.190;5.688;2023-05-13T09:59:10;16.70;99.90
23813;DHT22;12087;45.190;5.688;2023-05-13T10:04:32;16.80;99.90
23813;DHT22;12087;45.190;5.688;2023-05-13T10:09:57;17.00;99.90
23813;DHT22;12087;45.190;5.688;2023-05-13T10:15:21;17.00;99.90
23813;DHT22;12087;45.190;5.688;2023-05-13T10:20:44;17.50;99.90
23813;DHT22;12087;45.190;5.688;2023-05-13T10:26:07;17.70;99.90
23813;DHT22;12087;45.190;5.688;2023-05-13T10:31:31;17.90;99.90
23813;DHT22;12087;45.190;5.688;2023-05-13T10:37:06;18.10;99.90
23813;DHT22;12087;45.190;5.688;2023-05-13T10:42:38;18.30;99.90
23813;DHT22;12087;45.190;5.688;2023-05-13T10:48:06;18.60;99.90
23813;DHT22;12087;45.190;5.688;2023-05-13T10:53:31;18.80;99.90
23813;DHT22;12087;45.190;5.688;2023-05-13T10:58:57;18.90;99.90
23813;DHT22;12087;45.190;5.688;2023-05-13T11:04:21;19.20;99.90
23813;DHT22;12087;45.190;5.688;2023-05-13T11:09:48;19.30;99.90
23813;DHT22;12087;45.190;5.688;2023-05-13T11:15:20;18.70;99.90
23813;DHT22;12087;45.190;5.688;2023-05-13T11:20:46;18.40;99.90
23813;DHT22;12087;45.190;5.688;2023-05-13T11:26:10;18.20;99.90
23813;DHT22;12087;45.190;5.688;2023-05-13T11:31:44;18.00;99.90
23813;DHT22;12087;45.190;5.688;2023-05-13T11:37:09;17.80;99.90
23813;DHT22;12087;45.190;5.688;2023-05-13T11:42:31;17.50;99.90
23813;DHT22;12087;45.190;5.688;2023-05-13T11:47:54;17.20;99.90
23813;DHT22;12087;45.190;5.688;2023-05-13T11:53:21;17.20;99.90
23813;DHT22;12087;45.190;5.688;2023-05-13T11:58:43;17.10;99.90
23813;DHT22;12087;45.190;5.688;2023-05-13T12:04:05;17.10;99.90
23813;DHT22;12087;45.190;5.688;2023-05-13T12:09:29;17.00;99.90
23813;DHT22;12087;45.190;5.688;2023-05-13T12:14:52;16.90;99.90
23813;DHT22;12087;45.190;5.688;2023-05-13T12:20:16;16.80;99.90
23813;DHT22;12087;45.190;5.688;2023-05-13T12:25:44;16.80;99.90
23813;DHT22;12087;45.190;5.688;2023-05-13T12:31:15;16.80;99.90
23813;DHT22;12087;45.190;5.688;2023-05-13T12:36:38;16.90;99.90
23813;DHT22;12087;45.190;5.688;2023-05-13T12:42:02;16.90;99.90
23813;DHT22;12087;45.190;5.688;2023-05-13T12:47:24;17.30;99.90
23813;DHT22;12087;45.190;5.688;2023-05-13T12:52:46;17.60;99.90
23813;DHT22;12087;45.190;5.688;2023-05-13T12:58:10;18.40;99.90
23813;DHT22;12087;45.190;5.688;2023-05-13T13:03:33;18.70;99.90
23813;DHT22;12087;45.190;5.688;2023-05-13T13:08:55;19.00;99.90
23813;DHT22;12087;45.190;5.688;2023-05-13T13:14:19;18.50;99.90
23813;DHT22;12087;45.190;5.688;2023-05-13T13:19:43;18.20;99.90
23813;DHT22;12087;45.190;5.688;2023-05-13T13:25:07;17.90;99.90
23813;DHT22;12087;45.190;5.688;2023-05-13T13:30:30;17.80;99.90
23813;DHT22;12087;45.190;5.688;2023-05-13T13:35:53;17.70;99.90
23813;DHT22;12087;45.190;5.688;2023-05-13T13:41:15;17.60;99.90
23813;DHT22;12087;45.190;5.688;2023-05-13T13:46:38;17.50;99.90
23813;DHT22;12087;45.190;5.688;2023-05-13T13:52:01;17.40;99.90
23813;DHT22;12087;45.190;5.688;2023-05-13T13:57:23;17.40;99.90
23813;DHT22;12087;45.190;5.688;2023-05-13T14:02:46;17.30;99.90
23813;DHT22;12087;45.190;5.688;2023-05-13T14:08:09;17.30;99.90
23813;DHT22;12087;45.190;5.688;2023-05-13T14:13:31;17.20;99.90
23813;DHT22;12087;45.190;5.688;2023-05-13T14:18:55;17.20;99.90
23813;DHT22;12087;45.190;5.688;2023-05-13T14:24:17;17.10;99.90
23813;DHT22;12087;45.190;5.688;2023-05-13T14:29:39;16.90;99.90
23813;DHT22;12087;45.190;5.688;2023-05-13T14:35:03;16.70;99.90
23813;DHT22;12087;45.190;5.688;2023-05-13T14:40:25;16.60;99.90
23813;DHT22;12087;45.190;5.688;2023-05-13T14:45:47;16.40;99.90
23813;DHT22;12087;45.190;5.688;2023-05-13T14:51:11;16.30;99.90
23813;DHT22;12087;45.190;5.688;2023-05-13T14:56:34;16.20;99.90
23813;DHT22;12087;45.190;5.688;2023-05-13T15:01:57;16.10;99.90
23813;DHT22;12087;45.190;5.688;2023-05-13T15:07:21;16.00;99.90
23813;DHT22;12087;45.190;5.688;2023-05-13T15:12:43;15.90;99.90
23813;DHT22;12087;45.190;5.688;2023-05-13T15:18:05;15.80;99.90
23813;DHT22;12087;45.190;5.688;2023-05-13T15:23:29;15.80;99.90
23813;DHT22;12087;45.190;5.688;2023-05-13T15:28:51;15.80;99.90
23813;DHT22;12087;45.190;5.688;2023-05-13T15:34:13;15.80;99.90
23813;DHT22;12087;45.190;5.688;2023-05-13T15:39:37;15.80;99.90
23813;DHT22;12087;45.190;5.688;2023-05-13T15:44:59;15.80;99.90
23813;DHT22;12087;45.190;5.688;2023-05-13T15:50:21;15.90;99.90
23813;DHT22;12087;45.190;5.688;2023-05-13T15:55:47;15.90;99.90
23813;DHT22;12087;45.190;5.688;2023-05-13T16:01:09;15.90;99.90
23813;DHT22;12087;45.190;5.688;2023-05-13T16:06:31;15.90;99.90
23813;DHT22;12087;45.190;5.688;2023-05-13T16:11:55;15.90;99.90
23813;DHT22;12087;45.190;5.688;2023-05-13T16:17:17;15.90;99.90
23813;DHT22;12087;45.190;5.688;2023-05-13T16:22:40;15.90;99.90
23813;DHT22;12087;45.190;5.688;2023-05-13T16:28:04;15.90;99.90
23813;DHT22;12087;45.190;5.688;2023-05-13T16:33:27;15.80;99.90
23813;DHT22;12087;45.190;5.688;2023-05-13T16:38:49;15.80;99.90
23813;DHT22;12087;45.190;5.688;2023-05-13T16:44:13;15.80;99.90
23813;DHT22;12087;45.190;5.688;2023-05-13T16:49:35;15.80;99.90
23813;DHT22;12087;45.190;5.688;2023-05-13T16:54:58;15.70;99.90
23813;DHT22;12087;45.190;5.688;2023-05-13T17:00:21;15.70;99.90
23813;DHT22;12087;45.190;5.688;2023-05-13T17:05:44;15.50;99.90
23813;DHT22;12087;45.190;5.688;2023-05-13T17:11:06;15.30;99.90
23813;DHT22;12087;45.190;5.688;2023-05-13T17:16:36;15.10;99.90
23813;DHT22;12087;45.190;5.688;2023-05-13T17:21:59;15.00;99.90
23813;DHT22;12087;45.190;5.688;2023-05-13T17:27:21;14.90;99.90
23813;DHT22;12087;45.190;5.688;2023-05-13T17:32:45;14.80;99.90
23813;DHT22;12087;45.190;5.688;2023-05-13T17:38:07;14.70;99.90
23813;DHT22;12087;45.190;5.688;2023-05-13T17:43:29;14.50;99.90
23813;DHT22;12087;45.190;5.688;2023-05-13T17:48:53;14.40;99.90
23813;DHT22;12087;45.190;5.688;2023-05-13T17:54:15;14.20;99.90
23813;DHT22;12087;45.190;5.688;2023-05-13T17:59:37;14.10;99.90
23813;DHT22;12087;45.190;5.688;2023-05-13T18:05:01;14.10;99.90
23813;DHT22;12087;45.190;5.688;2023-05-13T18:10:23;14.00;99.90
23813;DHT22;12087;45.190;5.688;2023-05-13T18:15:47;14.00;99.90
23813;DHT22;12087;45.190;5.688;2023-05-13T18:21:10;13.90;99.90
23813;DHT22;12087;45.190;5.688;2023-05-13T18:26:33;13.90;99.90
23813;DHT22;12087;45.190;5.688;2023-05-13T18:31:55;13.90;99.90
23813;DHT22;12087;45.190;5.688;2023-05-13T18:37:19;13.80;99.90
23813;DHT22;12087;45.190;5.688;2023-05-13T18:42:41;13.70;99.90
23813;DHT22;12087;45.190;5.688;2023-05-13T18:48:03;13.70;99.90
23813;DHT22;12087;45.190;5.688;2023-05-13T18:53:27;13.60;99.90
23813;DHT22;12087;45.190;5.688;2023-05-13T18:58:49;13.60;99.90
23813;DHT22;12087;45.190;5.688;2023-05-13T19:04:11;13.50;99.90
23813;DHT22;12087;45.190;5.688;2023-05-13T19:09:36;13.50;99.90
23813;DHT22;12087;45.190;5.688;2023-05-13T19:14:58;13.50;99.90
23813;DHT22;12087;45.190;5.688;2023-05-13T19:20:20;13.40;99.90
23813;DHT22;12087;45.190;5.688;2023-05-13T19:25:44;13.40;99.90
23813;DHT22;12087;45.190;5.688;2023-05-13T19:31:06;13.40;99.90
23813;DHT22;12087;45.190;5.688;2023-05-13T19:36:29;13.50;99.90
23813;DHT22;12087;45.190;5.688;2023-05-13T19:41:53;13.50;99.90
23813;DHT22;12087;45.190;5.688;2023-05-13T19:47:15;13.40;99.90
23813;DHT22;12087;45.190;5.688;2023-05-13T19:52:38;13.40;99.90
23813;DHT22;12087;45.190;5.688;2023-05-13T19:58:04;13.40;99.90
23813;DHT22;12087;45.190;5.688;2023-05-13T20:03:27;13.30;99.90
23813;DHT22;12087;45.190;5.688;2023-05-13T20:08:49;13.30;99.90
23813;DHT22;12087;45.190;5.688;2023-05-13T20:14:12;13.30;99.90
23813;DHT22;12087;45.190;5.688;2023-05-13T20:19:36;13.30;99.90
23813;DHT22;12087;45.190;5.688;2023-05-13T20:24:59;13.20;99.90
23813;DHT22;12087;45.190;5.688;2023-05-13T20:30:22;13.10;99.90
23813;DHT22;12087;45.190;5.688;2023-05-13T20:35:44;13.10;99.90
23813;DHT22;12087;45.190;5.688;2023-05-13T20:41:07;13.10;99.90
23813;DHT22;12087;45.190;5.688;2023-05-13T20:46:30;13.00;99.90
23813;DHT22;12087;45.190;5.688;2023-05-13T20:51:53;13.00;99.90
23813;DHT22;12087;45.190;5.688;2023-05-13T20:57:15;12.90;99.90
23813;DHT22;12087;45.190;5.688;2023-05-13T21:02:38;13.00;99.90
23813;DHT22;12087;45.190;5.688;2023-05-13T21:08:01;12.90;99.90
23813;DHT22;12087;45.190;5.688;2023-05-13T21:13:23;12.90;99.90
23813;DHT22;12087;45.190;5.688;2023-05-13T21:18:48;12.90;99.90
23813;DHT22;12087;45.190;5.688;2023-05-13T21:24:10;12.90;99.90
23813;DHT22;12087;45.190;5.688;2023-05-13T21:29:32;12.80;99.90
23813;DHT22;12087;45.190;5.688;2023-05-13T21:34:56;12.90;99.90
23813;DHT22;12087;45.190;5.688;2023-05-13T21:40:18;12.90;99.90
23813;DHT22;12087;45.190;5.688;2023-05-13T21:45:40;12.90;99.90
23813;DHT22;12087;45.190;5.688;2023-05-13T21:51:04;12.90;99.90
23813;DHT22;12087;45.190;5.688;2023-05-13T21:56:26;12.90;99.90
23813;DHT22;12087;45.190;5.688;2023-05-13T22:01:48;12.90;99.90
23813;DHT22;12087;45.190;5.688;2023-05-13T22:07:12;12.90;99.90
23813;DHT22;12087;45.190;5.688;2023-05-13T22:12:34;12.80;99.90
23813;DHT22;12087;45.190;5.688;2023-05-13T22:17:56;12.80;99.90
23813;DHT22;12087;45.190;5.688;2023-05-13T22:23:20;12.80;99.90
23813;DHT22;12087;45.190;5.688;2023-05-13T22:28:44;12.90;99.90
23813;DHT22;12087;45.190;5.688;2023-05-13T22:34:08;12.80;99.90
23813;DHT22;12087;45.190;5.688;2023-05-13T22:39:31;12.80;99.90
23813;DHT22;12087;45.190;5.688;2023-05-13T22:44:54;12.90;99.90
23813;DHT22;12087;45.190;5.688;2023-05-13T22:50:16;12.90;99.90
23813;DHT22;12087;45.190;5.688;2023-05-13T22:55:39;12.90;99.90
23813;DHT22;12087;45.190;5.688;2023-05-13T23:01:02;12.90;99.90
23813;DHT22;12087;45.190;5.688;2023-05-13T23:06:25;12.90;99.90
23813;DHT22;12087;45.190;5.688;2023-05-13T23:11:48;12.80;99.90
23813;DHT22;12087;45.190;5.688;2023-05-13T23:17:11;12.80;99.90
23813;DHT22;12087;45.190;5.688;2023-05-13T23:22:33;12.80;99.90
23813;DHT22;12087;45.190;5.688;2023-05-13T23:27:56;12.80;99.90
23813;DHT22;12087;45.190;5.688;2023-05-13T23:33:19;12.80;99.90
23813;DHT22;12087;45.190;5.688;2023-05-13T23:38:41;12.80;99.90
23813;DHT22;12087;45.190;5.688;2023-05-13T23:44:05;12.80;99.90
23813;DHT22;12087;45.190;5.688;2023-05-13T23:49:27;12.80;99.90
23813;DHT22;12087;45.190;5.688;2023-05-13T23:54:49;12.70;99.90
